ZRH weather

Z├╝rich Airport
Zurich, Canton of Zurich, Switzerland

Public forecast

Using degrees Celsius for public forecast. Weather courtesy of forecast.io.

METAR (pilot weather report)

Retrieved 2017/07/23 04:20 UTC (0 seconds ago):

LSZH 230420Z 00000KT 9999 SCT016 BKN048 17/16 Q1018 NOSIG

TAF (pilot weather forecast)

Retrieved 2017/07/23 03:33 UTC (40 minutes ago):

TAF LSZH 230225Z 2303/2409 VRB03KT 9999 FEW025 BKN075 TX22/2315Z TN16/2304Z TN14/2404Z TEMPO 2303/2309 SHRA TEMPO 2306/2319 29010KT TEMPO 2405/2409 SHRA